WetterOnline ( https://www.wetteronline.de )

Wetter aktuell Borna

Aktuelles Wetter: Leipzig-Holzhausen (138m)

6-stündlich | Neueste Meldungen
Ortszeit Temperatur Wetter
So, 02.10. 20:00 12.1° C leicht bewölkt
So, 02.10. 14:00 16.1° C wolkig
So, 02.10. 8:00 9.8° C wolkenlos
So, 02.10. 2:00 11.1° C wolkenlos
Sa, 01.10. 20:00 12.8° C bewölkt
Sa, 01.10. 14:00 11.1° C Regen
Sa, 01.10. 8:00 9.7° C bedeckt
Sa, 01.10. 2:00 8.1° C leicht bewölkt
Ortszeit Temperatur Wetter
So, 02.10. 22:00 12.1° C bedeckt
So, 02.10. 21:50 12.1° C bedeckt
So, 02.10. 21:40 12.1° C bedeckt
So, 02.10. 21:30 12.1° C bewölkt
So, 02.10. 21:20 12.1° C bewölkt
So, 02.10. 21:10 12.0° C bewölkt
So, 02.10. 21:00 12.3° C wolkig
So, 02.10. 20:30 12.1° C leicht bewölkt
So, 02.10. 20:00 12.1° C leicht bewölkt
So, 02.10. 19:30 12.1° C bewölkt
So, 02.10. 19:00 12.6° C bewölkt
Ortszeit Relative Feuchte Sichtweite
So, 02.10. 20:00 84% 50 km
So, 02.10. 14:00 71% 45 km
So, 02.10. 8:00 91% 35 km
So, 02.10. 2:00 87% 55 km
Sa, 01.10. 20:00 84% >70 km
Sa, 01.10. 14:00 91% 60 km
Sa, 01.10. 8:00 82% 35 km
Sa, 01.10. 2:00 88% 45 km
Ortszeit Relative Feuchte Sichtweite
So, 02.10. 22:00 81% 50 km
So, 02.10. 21:50 81% -
So, 02.10. 21:40 81% -
So, 02.10. 21:30 81% 45 km
So, 02.10. 21:20 81% -
So, 02.10. 21:10 82% -
So, 02.10. 21:00 80% 60 km
So, 02.10. 20:30 83% 40 km
So, 02.10. 20:00 84% 50 km
So, 02.10. 19:30 88% 50 km
So, 02.10. 19:00 86% 50 km
Ortszeit Niederschlagsmenge Niederschlagsart
So, 02.10. 20:00 2 l/m2 in 12 Std. Regen
So, 02.10. 14:00 0.2 l/m2 in 6 Std. Regen
So, 02.10. 8:00 0.0 l/m2 in 12 Std. -
So, 02.10. 2:00 0.0 l/m2 in 6 Std. -
Sa, 01.10. 20:00 4 l/m2 in 12 Std. Regen
Sa, 01.10. 14:00 4 l/m2 in 6 Std. Regen
Sa, 01.10. 8:00 0.0 l/m2 in 12 Std. -
Sa, 01.10. 2:00 0.0 l/m2 in 6 Std. -
Ortszeit Niederschlagsmenge Niederschlagsart
So, 02.10. 22:00 0.0 l/m2 in 1 Std. -
So, 02.10. 21:50 keine Meldung -
So, 02.10. 21:40 keine Meldung -
So, 02.10. 21:30 0.0 l/m2 in 1 Std. -
So, 02.10. 21:20 keine Meldung -
So, 02.10. 21:10 keine Meldung -
So, 02.10. 21:00 0.0 l/m2 in 1 Std. -
So, 02.10. 20:30 0.0 l/m2 in 1 Std. -
So, 02.10. 20:00 0.0 l/m2 in 1 Std. Regen
So, 02.10. 19:30 0.0 l/m2 in 1 Std. -
So, 02.10. 19:00 <0.05 l/m2 in 1 Std. Regen
Ortszeit Stärke Spitze Richtung
km/h Bft. km/h Grad Sektor
So, 02.10. 20:00 11 2 36 280° W
So, 02.10. 14:00 14 3 40 260° W
So, 02.10. 8:00 9 2 33 230° SW
So, 02.10. 2:00 11 2 29 250° W
Sa, 01.10. 20:00 13 3 39 230° SW
Sa, 01.10. 14:00 11 2 32 210° SW
Sa, 01.10. 8:00 13 3 24 180° S
Sa, 01.10. 2:00 9 2 15 190° S
Ortszeit Stärke Spitze Richtung
km/h Bft. km/h Grad Sektor
So, 02.10. 22:00 7 2 18 290° W
So, 02.10. 21:50 7 2 - 290° W
So, 02.10. 21:40 9 2 - 280° W
So, 02.10. 21:30 7 2 18 280° W
So, 02.10. 21:20 7 2 - 280° W
So, 02.10. 21:10 7 2 - 280° W
So, 02.10. 21:00 7 2 19 290° W
So, 02.10. 20:30 9 2 19 280° W
So, 02.10. 20:00 11 2 22 280° W
So, 02.10. 19:30 7 2 14 280° W
So, 02.10. 19:00 7 2 22 280° W
Ortszeit Untergrenze Bedeckung Gattung
total tief tief mittel hoch
So, 02.10. 20:00 2400 m 2/8 2/8 - - -
So, 02.10. 14:00 690 m 6/8 6/8 - - -
So, 02.10. 8:00 - 0/8 0/8 - - -
So, 02.10. 2:00 - 0/8 0/8 - - -
Sa, 01.10. 20:00 1440 m 8/8 7/8 - - -
Sa, 01.10. 14:00 1110 m 7/8 7/8 - - -
Sa, 01.10. 8:00 4800 m 8/8 8/8 - - -
Sa, 01.10. 2:00 9000 m 3/8 0/8 - - -
Ortszeit Bedeckungsgrad in Achtel und Wolkenuntergrenze
So, 02.10. 22:00 8(2400m)
So, 02.10. 21:50 8(2400m)
So, 02.10. 21:40 8
So, 02.10. 21:30 1(1050m) 7(2100m) 7(2700m)
So, 02.10. 21:20 1(1050m) 7(2100m) 7(2700m)
So, 02.10. 21:10 7
So, 02.10. 21:00 4(1170m) 6(1800m)
So, 02.10. 20:30 3(1470m)
So, 02.10. 20:00 2(2400m)
So, 02.10. 19:30 4(2100m) 7(2400m)
So, 02.10. 19:00 7(1500m)
Ortszeit Luftdruck NN (hPa) Tendenz (hPa in 3 Std.)
So, 02.10. 20:00 1017 + 2,1
So, 02.10. 14:00 1015 - 0,5
So, 02.10. 8:00 1016 + 0,5
So, 02.10. 2:00 1014 + 2,5
Sa, 01.10. 20:00 1008 + 1,5
Sa, 01.10. 14:00 1007 - 0,7
Sa, 01.10. 8:00 1010 - 1,3
Sa, 01.10. 2:00 1012 - 0,2
Ortszeit Luftdruck NN (hPa) Tendenz (hPa in 3 Std.)
So, 02.10. 22:00 1019 + 2,1
So, 02.10. 21:50 1019 keine Meldung
So, 02.10. 21:40 1019 keine Meldung
So, 02.10. 21:30 1018 + 2,2
So, 02.10. 21:20 1018 keine Meldung
So, 02.10. 21:10 1018 keine Meldung
So, 02.10. 21:00 1018 + 2,3
So, 02.10. 20:30 1018 + 2,4
So, 02.10. 20:00 1017 + 2,1
So, 02.10. 19:30 1017 + 1,8
So, 02.10. 19:00 1017 + 1,7
Ortszeit Schneehöhe (cm)
So, 02.10. 20:00 0
So, 02.10. 14:00 0
So, 02.10. 8:00 0
So, 02.10. 2:00 0
Sa, 01.10. 20:00 0
Sa, 01.10. 14:00 0
Sa, 01.10. 8:00 0
Sa, 01.10. 2:00 0
Ortszeit Schneehöhe (cm)
So, 02.10. 22:00 0
So, 02.10. 21:50 0
So, 02.10. 21:40 0
So, 02.10. 21:30 0
So, 02.10. 21:20 0
So, 02.10. 21:10 0
So, 02.10. 21:00 0
So, 02.10. 20:30 0
So, 02.10. 20:00 0
So, 02.10. 19:30 0
So, 02.10. 19:00 0
Link zu dieser Seite / Seite empfehlen

Das Wetter in ...